Pagrindinis puslapis
METAR-TAF:

METAR-TAF

Oro uostai :

Čumphonas, Tailandas

platuma: 10-42-40N, ilguma: 099-21-42E, Aukštis: 5 m

Dabartinis oras

Ataskaita buvo paskelbta 38 minutes, ne 06:00 UTC
Vėjas 6 kt iš Pietų/Pietryčių, svyruoja nuo Rytų/Pietryčių ir Pietų
Temperatūra 32°C
Drėgmė 71%
Slėgis 1010 hPa
Matomumas 10 km arba daugiau
Mažai debesys ne aukštis 2000 ft

METAR: VTSE 300600Z 15006KT 110V190 9999 FEW020 32/26 Q1010 NOSIG

Laikas: 13:38 (06:38 UTC)

Prognozė

Ataskaita buvo paskelbta 1 valandą ir 38 minutes, ne 05:00 UTC
Prognozė galioja nuo 30 metu 06 UTC su 31 metu 06 UTC
Vėjas 6 kt iš Pietvakarių
Matomumas 10 km arba daugiau
Išsisklaidę debesys ne aukštis 2000 ft
Laikinai
nuo 30 metu 07 UTC su 30 metu 13 UTC
Vėjas 10 kt nuo kintamojo kryptimis su gūsio iki 20 kt
Matomumas: 5000 m
Mažai debesys ne aukštis 1600 ft, Liūtiniai kamuoliniai debesys.
Išsisklaidę debesys ne aukštis 1800 ft
Su prošvaistėmis ne aukštis 10000 ft
perkūnija, lietus

TAF: VTSE 300500Z 3006/3106 23006KT 9999 SCT020 TEMPO 3007/3013 VRB10G20KT 5000 TSRA FEW016CB SCT018 BKN100

Orai ataskaitas ir orų prognozės (METAR, TAF).

turimą stotys yra geltonos ir raudonos taškus žemėlapyje.

Perkelti pele per norėdami pamatyti stoties vardą.

Tada spustelėkite, norėdami matyti oro stebėjimo ir prognozės.

Norėdami pakeisti žemėlapį: spustelėkite ant žalios mygtukų su juodo kryžiaus žemyn,; žalią mygtuką su brūkšneliu, jei norite nutolinti; arba žalių rodyklių gretimoms žemėlapius.


METAR-TAF: